sensor_id;sensor_type;location;lat;lon;timestamp;temperature;humidity
61016;DHT22;46902;52.920;6.536;2023-03-02T00:04:15;4.60;99.90
61016;DHT22;46902;52.920;6.536;2023-03-02T00:06:42;4.50;99.90
61016;DHT22;46902;52.920;6.536;2023-03-02T00:09:08;4.60;99.90
61016;DHT22;46902;52.920;6.536;2023-03-02T00:11:35;4.60;99.90
61016;DHT22;46902;52.920;6.536;2023-03-02T00:14:02;4.50;99.90
61016;DHT22;46902;52.920;6.536;2023-03-02T00:16:27;4.50;99.90
61016;DHT22;46902;52.920;6.536;2023-03-02T00:18:53;4.40;99.90
61016;DHT22;46902;52.920;6.536;2023-03-02T00:21:19;4.40;99.90
61016;DHT22;46902;52.920;6.536;2023-03-02T00:23:47;4.40;99.90
61016;DHT22;46902;52.920;6.536;2023-03-02T00:26:12;4.40;99.90
61016;DHT22;46902;52.920;6.536;2023-03-02T00:28:38;4.30;99.90
61016;DHT22;46902;52.920;6.536;2023-03-02T00:31:04;4.20;99.90
61016;DHT22;46902;52.920;6.536;2023-03-02T00:33:31;4.20;99.90
61016;DHT22;46902;52.920;6.536;2023-03-02T00:35:56;4.20;99.90
61016;DHT22;46902;52.920;6.536;2023-03-02T00:38:22;4.20;99.90
61016;DHT22;46902;52.920;6.536;2023-03-02T00:40:48;4.20;99.90
61016;DHT22;46902;52.920;6.536;2023-03-02T00:43:14;4.20;99.90
61016;DHT22;46902;52.920;6.536;2023-03-02T00:45:40;4.20;99.90
61016;DHT22;46902;52.920;6.536;2023-03-02T00:48:06;4.10;99.90
61016;DHT22;46902;52.920;6.536;2023-03-02T00:50:32;4.10;99.90
61016;DHT22;46902;52.920;6.536;2023-03-02T00:52:57;4.10;99.90
61016;DHT22;46902;52.920;6.536;2023-03-02T00:55:24;4.10;99.90
61016;DHT22;46902;52.920;6.536;2023-03-02T00:57:53;4.00;99.90
61016;DHT22;46902;52.920;6.536;2023-03-02T01:00:22;4.10;99.90
61016;DHT22;46902;52.920;6.536;2023-03-02T01:02:49;4.10;99.90
61016;DHT22;46902;52.920;6.536;2023-03-02T01:05:15;4.10;99.90
61016;DHT22;46902;52.920;6.536;2023-03-02T01:07:42;4.10;99.90
61016;DHT22;46902;52.920;6.536;2023-03-02T01:10:08;4.10;99.90
61016;DHT22;46902;52.920;6.536;2023-03-02T01:12:34;4.10;99.90
61016;DHT22;46902;52.920;6.536;2023-03-02T01:15:00;4.10;99.90
61016;DHT22;46902;52.920;6.536;2023-03-02T01:17:26;4.10;99.90
61016;DHT22;46902;52.920;6.536;2023-03-02T01:19:52;4.10;99.90
61016;DHT22;46902;52.920;6.536;2023-03-02T01:22:18;4.10;99.90
61016;DHT22;46902;52.920;6.536;2023-03-02T01:24:44;4.00;99.90
61016;DHT22;46902;52.920;6.536;2023-03-02T01:27:09;4.00;99.90
61016;DHT22;46902;52.920;6.536;2023-03-02T01:29:36;4.00;99.90
61016;DHT22;46902;52.920;6.536;2023-03-02T01:32:02;4.00;99.90
61016;DHT22;46902;52.920;6.536;2023-03-02T01:34:27;4.00;99.90
61016;DHT22;46902;52.920;6.536;2023-03-02T01:36:53;4.10;99.90
61016;DHT22;46902;52.920;6.536;2023-03-02T01:39:19;4.00;99.90
61016;DHT22;46902;52.920;6.536;2023-03-02T01:41:48;4.00;99.90
61016;DHT22;46902;52.920;6.536;2023-03-02T01:46:58;4.00;99.90
61016;DHT22;46902;52.920;6.536;2023-03-02T01:49:24;4.10;99.90
61016;DHT22;46902;52.920;6.536;2023-03-02T01:51:50;4.00;99.90
61016;DHT22;46902;52.920;6.536;2023-03-02T01:54:18;4.00;99.90
61016;DHT22;46902;52.920;6.536;2023-03-02T01:56:49;4.00;99.90
61016;DHT22;46902;52.920;6.536;2023-03-02T01:59:18;4.00;99.90
61016;DHT22;46902;52.920;6.536;2023-03-02T02:01:48;3.90;99.90
61016;DHT22;46902;52.920;6.536;2023-03-02T02:04:15;3.80;99.90
61016;DHT22;46902;52.920;6.536;2023-03-02T02:06:45;3.80;99.90
61016;DHT22;46902;52.920;6.536;2023-03-02T02:09:14;3.80;99.90
61016;DHT22;46902;52.920;6.536;2023-03-02T02:11:42;3.80;99.90
61016;DHT22;46902;52.920;6.536;2023-03-02T02:14:08;3.70;99.90
61016;DHT22;46902;52.920;6.536;2023-03-02T02:16:33;3.70;99.90
61016;DHT22;46902;52.920;6.536;2023-03-02T02:19:00;3.70;99.90
61016;DHT22;46902;52.920;6.536;2023-03-02T02:21:27;3.70;99.90
61016;DHT22;46902;52.920;6.536;2023-03-02T02:24:02;3.70;99.90
61016;DHT22;46902;52.920;6.536;2023-03-02T02:26:42;3.80;99.90
61016;DHT22;46902;52.920;6.536;2023-03-02T02:29:14;3.70;99.90
61016;DHT22;46902;52.920;6.536;2023-03-02T02:31:44;3.80;99.90
61016;DHT22;46902;52.920;6.536;2023-03-02T02:34:13;3.80;99.90
61016;DHT22;46902;52.920;6.536;2023-03-02T02:36:44;3.80;99.90
61016;DHT22;46902;52.920;6.536;2023-03-02T02:39:18;3.80;99.90
61016;DHT22;46902;52.920;6.536;2023-03-02T02:41:46;3.80;99.90
61016;DHT22;46902;52.920;6.536;2023-03-02T02:44:17;3.80;99.90
61016;DHT22;46902;52.920;6.536;2023-03-02T02:46:43;3.80;99.90
61016;DHT22;46902;52.920;6.536;2023-03-02T02:49:38;3.80;99.90
61016;DHT22;46902;52.920;6.536;2023-03-02T02:52:05;3.80;99.90
61016;DHT22;46902;52.920;6.536;2023-03-02T02:54:32;3.70;99.90
61016;DHT22;46902;52.920;6.536;2023-03-02T02:57:00;3.70;99.90
61016;DHT22;46902;52.920;6.536;2023-03-02T02:59:31;3.70;99.90
61016;DHT22;46902;52.920;6.536;2023-03-02T03:01:57;3.70;99.90
61016;DHT22;46902;52.920;6.536;2023-03-02T03:04:27;3.60;99.90
61016;DHT22;46902;52.920;6.536;2023-03-02T03:06:54;3.60;99.90
61016;DHT22;46902;52.920;6.536;2023-03-02T03:09:20;3.60;99.90
61016;DHT22;46902;52.920;6.536;2023-03-02T03:11:55;3.70;99.90
61016;DHT22;46902;52.920;6.536;2023-03-02T03:14:27;3.60;99.90
61016;DHT22;46902;52.920;6.536;2023-03-02T03:16:54;3.60;99.90
61016;DHT22;46902;52.920;6.536;2023-03-02T03:19:26;3.50;99.90
61016;DHT22;46902;52.920;6.536;2023-03-02T03:21:54;3.50;99.90
61016;DHT22;46902;52.920;6.536;2023-03-02T03:24:20;3.40;99.90
61016;DHT22;46902;52.920;6.536;2023-03-02T03:26:47;3.30;99.90
61016;DHT22;46902;52.920;6.536;2023-03-02T03:29:13;3.30;99.90
61016;DHT22;46902;52.920;6.536;2023-03-02T03:31:39;3.30;99.90
61016;DHT22;46902;52.920;6.536;2023-03-02T03:34:05;3.30;99.90
61016;DHT22;46902;52.920;6.536;2023-03-02T03:36:31;3.30;99.90
61016;DHT22;46902;52.920;6.536;2023-03-02T03:38:58;3.30;99.90
61016;DHT22;46902;52.920;6.536;2023-03-02T03:41:24;3.30;99.90
61016;DHT22;46902;52.920;6.536;2023-03-02T03:43:50;3.30;99.90
61016;DHT22;46902;52.920;6.536;2023-03-02T03:46:16;3.30;99.90
61016;DHT22;46902;52.920;6.536;2023-03-02T03:48:42;3.20;99.90
61016;DHT22;46902;52.920;6.536;2023-03-02T03:51:09;3.20;99.90
61016;DHT22;46902;52.920;6.536;2023-03-02T03:53:35;3.20;99.90
61016;DHT22;46902;52.920;6.536;2023-03-02T03:56:00;3.20;99.90
61016;DHT22;46902;52.920;6.536;2023-03-02T03:58:29;3.10;99.90
61016;DHT22;46902;52.920;6.536;2023-03-02T04:00:55;3.00;99.90
61016;DHT22;46902;52.920;6.536;2023-03-02T04:03:20;3.10;99.90
61016;DHT22;46902;52.920;6.536;2023-03-02T04:05:47;3.00;99.90
61016;DHT22;46902;52.920;6.536;2023-03-02T04:08:13;3.00;99.90
61016;DHT22;46902;52.920;6.536;2023-03-02T04:10:39;3.00;99.90
61016;DHT22;46902;52.920;6.536;2023-03-02T04:13:04;3.00;99.90
61016;DHT22;46902;52.920;6.536;2023-03-02T04:15:30;2.90;99.90
61016;DHT22;46902;52.920;6.536;2023-03-02T04:17:56;2.90;99.90
61016;DHT22;46902;52.920;6.536;2023-03-02T04:20:23;2.90;99.90
61016;DHT22;46902;52.920;6.536;2023-03-02T04:22:51;2.90;99.90
61016;DHT22;46902;52.920;6.536;2023-03-02T04:25:20;2.90;99.90
61016;DHT22;46902;52.920;6.536;2023-03-02T04:27:47;2.80;99.90
61016;DHT22;46902;52.920;6.536;2023-03-02T04:30:15;2.80;99.90
61016;DHT22;46902;52.920;6.536;2023-03-02T04:32:41;2.80;99.90
61016;DHT22;46902;52.920;6.536;2023-03-02T04:35:09;2.70;99.90
61016;DHT22;46902;52.920;6.536;2023-03-02T04:37:36;2.70;99.90
61016;DHT22;46902;52.920;6.536;2023-03-02T04:40:02;2.70;99.90
61016;DHT22;46902;52.920;6.536;2023-03-02T04:42:28;2.70;99.90
61016;DHT22;46902;52.920;6.536;2023-03-02T04:44:54;2.80;99.90
61016;DHT22;46902;52.920;6.536;2023-03-02T04:47:20;2.80;99.90
61016;DHT22;46902;52.920;6.536;2023-03-02T04:49:45;2.80;99.90
61016;DHT22;46902;52.920;6.536;2023-03-02T04:52:11;2.80;99.90
61016;DHT22;46902;52.920;6.536;2023-03-02T04:54:37;2.70;99.90
61016;DHT22;46902;52.920;6.536;2023-03-02T04:57:03;2.70;99.90
61016;DHT22;46902;52.920;6.536;2023-03-02T04:59:28;2.70;99.90
61016;DHT22;46902;52.920;6.536;2023-03-02T05:01:56;2.70;99.90
61016;DHT22;46902;52.920;6.536;2023-03-02T05:04:22;2.60;99.90
61016;DHT22;46902;52.920;6.536;2023-03-02T05:06:48;2.60;99.90
61016;DHT22;46902;52.920;6.536;2023-03-02T05:09:14;2.70;99.90
61016;DHT22;46902;52.920;6.536;2023-03-02T05:11:40;2.70;99.90
61016;DHT22;46902;52.920;6.536;2023-03-02T05:14:08;2.70;99.90
61016;DHT22;46902;52.920;6.536;2023-03-02T05:16:37;2.70;99.90
61016;DHT22;46902;52.920;6.536;2023-03-02T05:19:05;2.80;99.90
61016;DHT22;46902;52.920;6.536;2023-03-02T05:21:31;2.70;99.90
61016;DHT22;46902;52.920;6.536;2023-03-02T05:23:56;2.70;99.90
61016;DHT22;46902;52.920;6.536;2023-03-02T05:26:22;2.70;99.90
61016;DHT22;46902;52.920;6.536;2023-03-02T05:28:48;2.70;99.90
61016;DHT22;46902;52.920;6.536;2023-03-02T05:31:22;2.70;99.90
61016;DHT22;46902;52.920;6.536;2023-03-02T05:33:48;2.70;99.90
61016;DHT22;46902;52.920;6.536;2023-03-02T05:36:14;2.70;99.90
61016;DHT22;46902;52.920;6.536;2023-03-02T05:38:40;2.70;99.90
61016;DHT22;46902;52.920;6.536;2023-03-02T05:41:06;2.70;99.90
61016;DHT22;46902;52.920;6.536;2023-03-02T05:43:31;2.70;99.90
61016;DHT22;46902;52.920;6.536;2023-03-02T05:45:57;2.70;99.90
61016;DHT22;46902;52.920;6.536;2023-03-02T05:48:31;2.70;99.90
61016;DHT22;46902;52.920;6.536;2023-03-02T05:50:57;2.70;99.90
61016;DHT22;46902;52.920;6.536;2023-03-02T05:53:23;2.60;99.90
61016;DHT22;46902;52.920;6.536;2023-03-02T05:55:49;2.60;99.90
61016;DHT22;46902;52.920;6.536;2023-03-02T05:58:17;2.60;99.90
61016;DHT22;46902;52.920;6.536;2023-03-02T06:00:44;2.60;99.90
61016;DHT22;46902;52.920;6.536;2023-03-02T06:03:10;2.60;99.90
61016;DHT22;46902;52.920;6.536;2023-03-02T06:05:36;2.70;99.90
61016;DHT22;46902;52.920;6.536;2023-03-02T06:08:02;2.70;99.90
61016;DHT22;46902;52.920;6.536;2023-03-02T06:10:28;2.70;99.90
61016;DHT22;46902;52.920;6.536;2023-03-02T06:12:54;2.60;99.90
61016;DHT22;46902;52.920;6.536;2023-03-02T06:15:19;2.60;99.90
61016;DHT22;46902;52.920;6.536;2023-03-02T06:17:45;2.70;99.90
61016;DHT22;46902;52.920;6.536;2023-03-02T06:20:12;2.60;99.90
61016;DHT22;46902;52.920;6.536;2023-03-02T06:22:47;2.60;99.90
61016;DHT22;46902;52.920;6.536;2023-03-02T06:25:19;2.60;99.90
61016;DHT22;46902;52.920;6.536;2023-03-02T06:27:46;2.60;99.90
61016;DHT22;46902;52.920;6.536;2023-03-02T06:30:16;2.50;99.90
61016;DHT22;46902;52.920;6.536;2023-03-02T06:32:43;2.50;99.90
61016;DHT22;46902;52.920;6.536;2023-03-02T06:35:09;2.50;99.90
61016;DHT22;46902;52.920;6.536;2023-03-02T06:37:35;2.50;99.90
61016;DHT22;46902;52.920;6.536;2023-03-02T06:40:01;2.50;99.90
61016;DHT22;46902;52.920;6.536;2023-03-02T06:42:27;2.60;99.90
61016;DHT22;46902;52.920;6.536;2023-03-02T06:44:53;2.60;99.90
61016;DHT22;46902;52.920;6.536;2023-03-02T06:47:22;2.60;99.90
61016;DHT22;46902;52.920;6.536;2023-03-02T06:49:47;2.50;99.90
61016;DHT22;46902;52.920;6.536;2023-03-02T06:52:13;2.50;99.90
61016;DHT22;46902;52.920;6.536;2023-03-02T06:54:40;2.50;99.90
61016;DHT22;46902;52.920;6.536;2023-03-02T06:57:06;2.50;99.90
61016;DHT22;46902;52.920;6.536;2023-03-02T06:59:32;2.50;99.90
61016;DHT22;46902;52.920;6.536;2023-03-02T07:01:58;2.50;99.90
61016;DHT22;46902;52.920;6.536;2023-03-02T07:04:23;2.60;99.90
61016;DHT22;46902;52.920;6.536;2023-03-02T07:06:49;2.50;99.90
61016;DHT22;46902;52.920;6.536;2023-03-02T07:09:15;2.50;99.90
61016;DHT22;46902;52.920;6.536;2023-03-02T07:11:40;2.50;99.90
61016;DHT22;46902;52.920;6.536;2023-03-02T07:14:06;2.40;99.90
61016;DHT22;46902;52.920;6.536;2023-03-02T07:16:33;2.40;99.90
61016;DHT22;46902;52.920;6.536;2023-03-02T07:18:59;2.40;99.90
61016;DHT22;46902;52.920;6.536;2023-03-02T07:21:25;2.40;99.90
61016;DHT22;46902;52.920;6.536;2023-03-02T07:23:50;2.50;99.90
61016;DHT22;46902;52.920;6.536;2023-03-02T07:26:16;2.40;99.90
61016;DHT22;46902;52.920;6.536;2023-03-02T07:28:41;2.50;99.90
61016;DHT22;46902;52.920;6.536;2023-03-02T07:31:09;2.50;99.90
61016;DHT22;46902;52.920;6.536;2023-03-02T07:33:36;2.50;99.90
61016;DHT22;46902;52.920;6.536;2023-03-02T07:36:02;2.50;99.90
61016;DHT22;46902;52.920;6.536;2023-03-02T07:38:27;2.50;99.90
61016;DHT22;46902;52.920;6.536;2023-03-02T07:40:53;2.60;99.90
61016;DHT22;46902;52.920;6.536;2023-03-02T07:43:22;2.50;99.90
61016;DHT22;46902;52.920;6.536;2023-03-02T07:45:50;2.60;99.90
61016;DHT22;46902;52.920;6.536;2023-03-02T07:48:15;2.50;99.90
61016;DHT22;46902;52.920;6.536;2023-03-02T07:50:41;2.50;99.90
61016;DHT22;46902;52.920;6.536;2023-03-02T07:53:07;2.50;99.90
61016;DHT22;46902;52.920;6.536;2023-03-02T07:55:33;2.50;99.90
61016;DHT22;46902;52.920;6.536;2023-03-02T07:57:58;2.50;99.90
61016;DHT22;46902;52.920;6.536;2023-03-02T08:00:24;2.50;99.90
61016;DHT22;46902;52.920;6.536;2023-03-02T08:02:50;2.60;99.90
61016;DHT22;46902;52.920;6.536;2023-03-02T08:05:16;2.60;99.90
61016;DHT22;46902;52.920;6.536;2023-03-02T08:07:41;2.60;99.90
61016;DHT22;46902;52.920;6.536;2023-03-02T08:10:09;2.70;99.90
61016;DHT22;46902;52.920;6.536;2023-03-02T08:12:35;2.80;99.90
61016;DHT22;46902;52.920;6.536;2023-03-02T08:15:00;2.80;99.90
61016;DHT22;46902;52.920;6.536;2023-03-02T08:17:26;2.80;99.90
61016;DHT22;46902;52.920;6.536;2023-03-02T08:19:51;2.80;99.90
61016;DHT22;46902;52.920;6.536;2023-03-02T08:22:17;2.80;99.90
61016;DHT22;46902;52.920;6.536;2023-03-02T08:24:43;2.80;99.90
61016;DHT22;46902;52.920;6.536;2023-03-02T08:27:12;2.90;99.90
61016;DHT22;46902;52.920;6.536;2023-03-02T08:29:38;2.90;99.90
61016;DHT22;46902;52.920;6.536;2023-03-02T08:32:04;2.90;99.90
61016;DHT22;46902;52.920;6.536;2023-03-02T08:34:30;2.80;99.90
61016;DHT22;46902;52.920;6.536;2023-03-02T08:36:56;2.90;99.90
61016;DHT22;46902;52.920;6.536;2023-03-02T08:39:21;2.90;99.90
61016;DHT22;46902;52.920;6.536;2023-03-02T08:41:52;2.90;99.90
61016;DHT22;46902;52.920;6.536;2023-03-02T08:44:18;2.90;99.90
61016;DHT22;46902;52.920;6.536;2023-03-02T08:46:45;2.90;99.90
61016;DHT22;46902;52.920;6.536;2023-03-02T08:49:11;2.90;99.90
61016;DHT22;46902;52.920;6.536;2023-03-02T08:51:36;2.80;99.90
61016;DHT22;46902;52.920;6.536;2023-03-02T08:54:02;2.80;99.90
61016;DHT22;46902;52.920;6.536;2023-03-02T08:56:30;2.90;99.90
61016;DHT22;46902;52.920;6.536;2023-03-02T08:59:05;2.90;99.90
61016;DHT22;46902;52.920;6.536;2023-03-02T09:01:32;3.10;99.90
61016;DHT22;46902;52.920;6.536;2023-03-02T09:03:58;3.00;99.90
61016;DHT22;46902;52.920;6.536;2023-03-02T09:06:26;3.10;99.90
61016;DHT22;46902;52.920;6.536;2023-03-02T09:08:52;3.20;99.90
61016;DHT22;46902;52.920;6.536;2023-03-02T09:11:18;3.20;99.90
61016;DHT22;46902;52.920;6.536;2023-03-02T09:13:43;3.30;99.90
61016;DHT22;46902;52.920;6.536;2023-03-02T09:16:12;3.30;99.90
61016;DHT22;46902;52.920;6.536;2023-03-02T09:18:38;3.40;99.90
61016;DHT22;46902;52.920;6.536;2023-03-02T09:21:04;3.40;99.90
61016;DHT22;46902;52.920;6.536;2023-03-02T09:23:31;3.50;99.90
61016;DHT22;46902;52.920;6.536;2023-03-02T09:25:57;3.50;99.90
61016;DHT22;46902;52.920;6.536;2023-03-02T09:28:23;3.60;99.90
61016;DHT22;46902;52.920;6.536;2023-03-02T09:30:56;3.60;99.90
61016;DHT22;46902;52.920;6.536;2023-03-02T09:33:22;3.60;99.90
61016;DHT22;46902;52.920;6.536;2023-03-02T09:35:48;3.60;99.90
61016;DHT22;46902;52.920;6.536;2023-03-02T09:38:15;3.60;99.90
61016;DHT22;46902;52.920;6.536;2023-03-02T09:46:48;3.60;99.90
61016;DHT22;46902;52.920;6.536;2023-03-02T09:52:32;3.60;99.90
61016;DHT22;46902;52.920;6.536;2023-03-02T09:55:10;3.60;99.90
61016;DHT22;46902;52.920;6.536;2023-03-02T09:57:38;3.60;99.90
61016;DHT22;46902;52.920;6.536;2023-03-02T10:00:12;3.60;99.90
61016;DHT22;46902;52.920;6.536;2023-03-02T10:02:50;3.80;99.90
61016;DHT22;46902;52.920;6.536;2023-03-02T10:05:26;3.90;99.90
61016;DHT22;46902;52.920;6.536;2023-03-02T10:07:52;4.00;99.90
61016;DHT22;46902;52.920;6.536;2023-03-02T10:10:35;4.00;99.90
61016;DHT22;46902;52.920;6.536;2023-03-02T10:15:42;4.20;99.90
61016;DHT22;46902;52.920;6.536;2023-03-02T10:21:28;4.10;99.90
61016;DHT22;46902;52.920;6.536;2023-03-02T10:26:53;4.20;99.90
61016;DHT22;46902;52.920;6.536;2023-03-02T10:32:23;4.20;99.90
61016;DHT22;46902;52.920;6.536;2023-03-02T10:34:51;4.30;99.90
61016;DHT22;46902;52.920;6.536;2023-03-02T10:37:20;4.30;99.90
61016;DHT22;46902;52.920;6.536;2023-03-02T10:39:48;4.40;99.90
61016;DHT22;46902;52.920;6.536;2023-03-02T10:44:51;4.70;99.90
61016;DHT22;46902;52.920;6.536;2023-03-02T10:47:26;4.80;99.90
61016;DHT22;46902;52.920;6.536;2023-03-02T10:49:54;5.00;99.90
61016;DHT22;46902;52.920;6.536;2023-03-02T10:52:22;5.10;99.90
61016;DHT22;46902;52.920;6.536;2023-03-02T10:54:48;5.20;99.90
61016;DHT22;46902;52.920;6.536;2023-03-02T10:57:33;5.20;99.90
61016;DHT22;46902;52.920;6.536;2023-03-02T11:00:43;5.30;99.90
61016;DHT22;46902;52.920;6.536;2023-03-02T11:05:34;5.30;99.90
61016;DHT22;46902;52.920;6.536;2023-03-02T11:08:02;5.30;99.90
61016;DHT22;46902;52.920;6.536;2023-03-02T11:10:34;5.30;99.90
61016;DHT22;46902;52.920;6.536;2023-03-02T11:13:05;5.30;99.90
61016;DHT22;46902;52.920;6.536;2023-03-02T11:15:48;5.30;99.90
61016;DHT22;46902;52.920;6.536;2023-03-02T11:18:24;5.20;99.90
61016;DHT22;46902;52.920;6.536;2023-03-02T11:21:00;5.30;99.90
61016;DHT22;46902;52.920;6.536;2023-03-02T11:26:27;5.30;99.90
61016;DHT22;46902;52.920;6.536;2023-03-02T11:31:41;5.40;99.90
61016;DHT22;46902;52.920;6.536;2023-03-02T11:34:45;5.50;99.90
61016;DHT22;46902;52.920;6.536;2023-03-02T11:42:35;5.60;99.90
61016;DHT22;46902;52.920;6.536;2023-03-02T11:45:19;5.70;99.90
61016;DHT22;46902;52.920;6.536;2023-03-02T11:50:21;5.60;99.90
61016;DHT22;46902;52.920;6.536;2023-03-02T11:52:51;5.70;99.90
61016;DHT22;46902;52.920;6.536;2023-03-02T11:55:22;5.60;99.90
61016;DHT22;46902;52.920;6.536;2023-03-02T11:58:00;5.70;99.90
61016;DHT22;46902;52.920;6.536;2023-03-02T12:00:37;5.70;99.90
61016;DHT22;46902;52.920;6.536;2023-03-02T12:05:40;5.70;99.90
61016;DHT22;46902;52.920;6.536;2023-03-02T12:11:04;6.00;99.90
61016;DHT22;46902;52.920;6.536;2023-03-02T12:15:58;6.20;99.90
61016;DHT22;46902;52.920;6.536;2023-03-02T12:21:00;6.80;99.90
61016;DHT22;46902;52.920;6.536;2023-03-02T12:23:27;7.00;99.90
61016;DHT22;46902;52.920;6.536;2023-03-02T12:26:21;7.10;99.90
61016;DHT22;46902;52.920;6.536;2023-03-02T12:31:25;7.20;99.90
61016;DHT22;46902;52.920;6.536;2023-03-02T12:33:51;7.20;99.90
61016;DHT22;46902;52.920;6.536;2023-03-02T12:36:34;7.40;99.90
61016;DHT22;46902;52.920;6.536;2023-03-02T12:44:39;7.50;99.90
61016;DHT22;46902;52.920;6.536;2023-03-02T12:47:19;7.50;99.90
61016;DHT22;46902;52.920;6.536;2023-03-02T12:49:57;7.60;99.90
61016;DHT22;46902;52.920;6.536;2023-03-02T12:52:29;7.60;99.90
61016;DHT22;46902;52.920;6.536;2023-03-02T12:55:03;7.60;99.90
61016;DHT22;46902;52.920;6.536;2023-03-02T12:57:29;7.70;99.90
61016;DHT22;46902;52.920;6.536;2023-03-02T13:00:00;7.60;99.90
61016;DHT22;46902;52.920;6.536;2023-03-02T13:02:34;7.70;99.90
61016;DHT22;46902;52.920;6.536;2023-03-02T13:05:06;8.00;99.90
61016;DHT22;46902;52.920;6.536;2023-03-02T13:07:38;8.20;99.90
61016;DHT22;46902;52.920;6.536;2023-03-02T13:10:19;8.30;99.90
61016;DHT22;46902;52.920;6.536;2023-03-02T13:12:46;8.30;99.90
61016;DHT22;46902;52.920;6.536;2023-03-02T13:15:16;8.50;99.90
61016;DHT22;46902;52.920;6.536;2023-03-02T13:17:43;8.80;99.90
61016;DHT22;46902;52.920;6.536;2023-03-02T13:20:12;9.00;99.90
61016;DHT22;46902;52.920;6.536;2023-03-02T13:22:39;9.10;99.90
61016;DHT22;46902;52.920;6.536;2023-03-02T13:25:17;9.20;99.90
61016;DHT22;46902;52.920;6.536;2023-03-02T13:27:52;9.20;99.90
61016;DHT22;46902;52.920;6.536;2023-03-02T13:30:31;9.40;99.90
61016;DHT22;46902;52.920;6.536;2023-03-02T13:33:02;9.90;99.90
61016;DHT22;46902;52.920;6.536;2023-03-02T13:35:31;10.30;99.90
61016;DHT22;46902;52.920;6.536;2023-03-02T13:38:12;10.40;99.90
61016;DHT22;46902;52.920;6.536;2023-03-02T13:40:41;10.50;99.70
61016;DHT22;46902;52.920;6.536;2023-03-02T13:46:24;11.00;97.30
61016;DHT22;46902;52.920;6.536;2023-03-02T13:51:22;11.30;97.20
61016;DHT22;46902;52.920;6.536;2023-03-02T13:54:01;11.30;96.70
61016;DHT22;46902;52.920;6.536;2023-03-02T13:56:30;11.40;95.20
61016;DHT22;46902;52.920;6.536;2023-03-02T13:58:56;11.40;95.30
61016;DHT22;46902;52.920;6.536;2023-03-02T14:01:22;11.40;95.10
61016;DHT22;46902;52.920;6.536;2023-03-02T14:03:48;11.60;95.10
61016;DHT22;46902;52.920;6.536;2023-03-02T14:06:16;11.70;94.50
61016;DHT22;46902;52.920;6.536;2023-03-02T14:08:44;11.80;94.10
61016;DHT22;46902;52.920;6.536;2023-03-02T14:11:11;11.90;93.60
61016;DHT22;46902;52.920;6.536;2023-03-02T14:13:45;12.00;92.80
61016;DHT22;46902;52.920;6.536;2023-03-02T14:16:13;12.20;92.50
61016;DHT22;46902;52.920;6.536;2023-03-02T14:18:48;12.20;92.00
61016;DHT22;46902;52.920;6.536;2023-03-02T14:21:15;12.30;91.80
61016;DHT22;46902;52.920;6.536;2023-03-02T14:23:41;12.40;91.50
61016;DHT22;46902;52.920;6.536;2023-03-02T14:28:54;12.70;90.40
61016;DHT22;46902;52.920;6.536;2023-03-02T14:31:20;12.80;90.60
61016;DHT22;46902;52.920;6.536;2023-03-02T14:33:49;12.80;90.00
61016;DHT22;46902;52.920;6.536;2023-03-02T14:36:18;12.70;89.30
61016;DHT22;46902;52.920;6.536;2023-03-02T14:38:46;12.60;88.50
61016;DHT22;46902;52.920;6.536;2023-03-02T14:41:21;12.60;89.10
61016;DHT22;46902;52.920;6.536;2023-03-02T14:43:47;12.50;87.90
61016;DHT22;46902;52.920;6.536;2023-03-02T14:46:13;12.30;88.30
61016;DHT22;46902;52.920;6.536;2023-03-02T14:48:39;12.20;88.50
61016;DHT22;46902;52.920;6.536;2023-03-02T14:51:20;12.10;88.90
61016;DHT22;46902;52.920;6.536;2023-03-02T14:53:50;12.00;88.00
61016;DHT22;46902;52.920;6.536;2023-03-02T14:56:19;11.80;89.10
61016;DHT22;46902;52.920;6.536;2023-03-02T14:58:47;11.70;89.30
61016;DHT22;46902;52.920;6.536;2023-03-02T15:01:13;11.50;89.30
61016;DHT22;46902;52.920;6.536;2023-03-02T15:03:39;11.30;89.20
61016;DHT22;46902;52.920;6.536;2023-03-02T15:06:20;11.20;89.60
61016;DHT22;46902;52.920;6.536;2023-03-02T15:08:47;11.00;89.90
61016;DHT22;46902;52.920;6.536;2023-03-02T15:11:12;10.80;90.10
61016;DHT22;46902;52.920;6.536;2023-03-02T15:13:38;10.70;90.50
61016;DHT22;46902;52.920;6.536;2023-03-02T15:16:03;10.60;90.60
61016;DHT22;46902;52.920;6.536;2023-03-02T15:18:29;10.50;90.60
61016;DHT22;46902;52.920;6.536;2023-03-02T15:20:55;10.40;90.80
61016;DHT22;46902;52.920;6.536;2023-03-02T15:23:21;10.30;91.10
61016;DHT22;46902;52.920;6.536;2023-03-02T15:25:46;10.20;91.20
61016;DHT22;46902;52.920;6.536;2023-03-02T15:28:12;10.10;91.30
61016;DHT22;46902;52.920;6.536;2023-03-02T15:30:37;9.90;91.40
61016;DHT22;46902;52.920;6.536;2023-03-02T15:33:03;9.90;91.60
61016;DHT22;46902;52.920;6.536;2023-03-02T15:35:29;9.80;91.70
61016;DHT22;46902;52.920;6.536;2023-03-02T15:37:54;9.70;91.90
61016;DHT22;46902;52.920;6.536;2023-03-02T15:40:23;9.70;92.10
61016;DHT22;46902;52.920;6.536;2023-03-02T15:42:48;9.60;92.20
61016;DHT22;46902;52.920;6.536;2023-03-02T15:45:14;9.60;92.30
61016;DHT22;46902;52.920;6.536;2023-03-02T15:47:39;9.50;92.70
61016;DHT22;46902;52.920;6.536;2023-03-02T15:50:05;9.50;92.60
61016;DHT22;46902;52.920;6.536;2023-03-02T15:52:31;9.40;92.60
61016;DHT22;46902;52.920;6.536;2023-03-02T15:54:57;9.40;92.70
61016;DHT22;46902;52.920;6.536;2023-03-02T15:57:22;9.30;92.70
61016;DHT22;46902;52.920;6.536;2023-03-02T15:59:48;9.30;93.00
61016;DHT22;46902;52.920;6.536;2023-03-02T16:02:13;9.20;93.20
61016;DHT22;46902;52.920;6.536;2023-03-02T16:04:39;9.20;93.50
61016;DHT22;46902;52.920;6.536;2023-03-02T16:07:05;9.20;93.40
61016;DHT22;46902;52.920;6.536;2023-03-02T16:09:31;9.10;93.50
61016;DHT22;46902;52.920;6.536;2023-03-02T16:11:56;9.00;93.60
61016;DHT22;46902;52.920;6.536;2023-03-02T16:14:22;9.00;93.80
61016;DHT22;46902;52.920;6.536;2023-03-02T16:16:48;8.90;93.90
61016;DHT22;46902;52.920;6.536;2023-03-02T16:19:15;8.90;94.10
61016;DHT22;46902;52.920;6.536;2023-03-02T16:21:41;8.80;94.30
61016;DHT22;46902;52.920;6.536;2023-03-02T16:24:07;8.80;94.40
61016;DHT22;46902;52.920;6.536;2023-03-02T16:26:35;8.70;94.40
61016;DHT22;46902;52.920;6.536;2023-03-02T16:29:03;8.70;94.60
61016;DHT22;46902;52.920;6.536;2023-03-02T16:31:32;8.60;94.70
61016;DHT22;46902;52.920;6.536;2023-03-02T16:34:02;8.50;94.90
61016;DHT22;46902;52.920;6.536;2023-03-02T16:36:32;8.50;95.10
61016;DHT22;46902;52.920;6.536;2023-03-02T16:38:58;8.40;95.20
61016;DHT22;46902;52.920;6.536;2023-03-02T16:41:24;8.40;95.40
61016;DHT22;46902;52.920;6.536;2023-03-02T16:43:52;8.30;95.40
61016;DHT22;46902;52.920;6.536;2023-03-02T16:46:20;8.20;95.40
61016;DHT22;46902;52.920;6.536;2023-03-02T16:48:47;8.10;95.40
61016;DHT22;46902;52.920;6.536;2023-03-02T16:51:13;8.00;95.60
61016;DHT22;46902;52.920;6.536;2023-03-02T16:53:39;8.00;95.70
61016;DHT22;46902;52.920;6.536;2023-03-02T16:56:06;7.90;95.70
61016;DHT22;46902;52.920;6.536;2023-03-02T16:58:32;7.80;95.90
61016;DHT22;46902;52.920;6.536;2023-03-02T17:00:57;7.70;96.10
61016;DHT22;46902;52.920;6.536;2023-03-02T17:03:23;7.70;96.40